Time;durP1;ratioP1;P1;durP2;ratioP2;P2;SDS_P1;SDS_P2;PMS_P1;PMS_P2;Temp;Humidity;BMP_temperature;BMP_pressure;BME280_temperature;BME280_humidity;BME280_pressure;Samples;Min_cycle;Max_cycle;Signal;HPM_P1;HPM_P2
2021/03/19 00:02:00;;;;;;;33.05;16.27;;;1.70;99.90;;;;;;5050040;28;20021;-44
2021/03/19 00:04:25;;;;;;;31.08;16.23;;;1.60;99.90;;;;;;5048762;28;20056;-44
2021/03/19 00:06:52;;;;;;;31.17;15.55;;;1.60;99.90;;;;;;5049257;28;20075;-46
2021/03/19 00:09:17;;;;;;;30.52;15.32;;;1.60;99.90;;;;;;5049788;28;20032;-46
2021/03/19 00:11:44;;;;;;;25.45;13.50;;;1.60;99.90;;;;;;5048048;28;20032;-45
2021/03/19 00:14:10;;;;;;;30.75;14.45;;;1.50;99.90;;;;;;5047917;28;20384;-44
2021/03/19 00:16:38;;;;;;;30.67;15.20;;;1.50;99.90;;;;;;5048865;28;20182;-47
2021/03/19 00:19:04;;;;;;;35.47;15.30;;;1.40;99.90;;;;;;5049159;28;20017;-45
2021/03/19 00:21:30;;;;;;;28.40;14.63;;;1.40;99.90;;;;;;5047813;28;20033;-45
2021/03/19 00:23:56;;;;;;;26.17;13.70;;;1.40;99.90;;;;;;5049432;28;20067;-44
2021/03/19 00:26:22;;;;;;;22.90;12.68;;;1.40;99.90;;;;;;5048972;28;20100;-44
2021/03/19 00:28:48;;;;;;;25.45;12.93;;;1.40;99.90;;;;;;5049428;28;20116;-44
2021/03/19 00:31:14;;;;;;;26.17;13.45;;;1.40;99.90;;;;;;5049429;28;20566;-45
2021/03/19 00:33:39;;;;;;;25.20;13.95;;;1.40;99.90;;;;;;5048042;28;20028;-45
2021/03/19 00:36:05;;;;;;;28.88;14.20;;;1.30;99.90;;;;;;5048794;28;20024;-46
2021/03/19 00:38:31;;;;;;;23.02;13.15;;;1.30;99.90;;;;;;5049261;28;20021;-45
2021/03/19 00:40:56;;;;;;;24.00;13.02;;;1.40;99.90;;;;;;5049027;28;20029;-42
2021/03/19 00:43:23;;;;;;;23.15;12.10;;;1.40;99.90;;;;;;5048336;28;20051;-45
2021/03/19 00:45:49;;;;;;;24.42;11.90;;;1.30;99.90;;;;;;5047289;28;20650;-46
2021/03/19 00:48:14;;;;;;;24.80;12.82;;;1.30;99.90;;;;;;5049140;28;20033;-44
2021/03/19 00:50:42;;;;;;;24.13;11.95;;;1.40;99.90;;;;;;5048234;28;20183;-44
2021/03/19 00:53:09;;;;;;;23.08;12.85;;;1.30;99.90;;;;;;5048630;28;20036;-45
2021/03/19 00:55:35;;;;;;;21.02;12.00;;;1.30;99.90;;;;;;5048298;28;20029;-44
2021/03/19 00:58:03;;;;;;;25.85;13.00;;;1.30;99.90;;;;;;5047454;28;20029;-44
2021/03/19 01:00:31;;;;;;;23.02;12.82;;;1.30;99.90;;;;;;5046345;28;20057;-46
2021/03/19 01:02:57;;;;;;;26.10;13.10;;;1.20;99.90;;;;;;5048216;28;20033;-45
2021/03/19 01:05:29;;;;;;;24.20;13.30;;;1.20;99.90;;;;;;5047757;28;20124;-45
2021/03/19 01:07:55;;;;;;;29.05;14.25;;;1.30;99.90;;;;;;5048642;28;20410;-46
2021/03/19 01:10:24;;;;;;;21.65;12.60;;;1.20;99.90;;;;;;5048137;28;20036;-45
2021/03/19 01:12:50;;;;;;;27.80;12.57;;;1.20;99.90;;;;;;5047101;28;20043;-45
2021/03/19 01:15:16;;;;;;;26.75;12.73;;;1.10;99.90;;;;;;5048018;28;20116;-45
2021/03/19 01:17:41;;;;;;;21.25;12.45;;;1.10;99.90;;;;;;5048476;28;20029;-47
2021/03/19 01:20:12;;;;;;;22.63;12.38;;;1.00;99.90;;;;;;5048192;28;20079;-45
2021/03/19 01:22:38;;;;;;;21.65;12.23;;;1.10;99.90;;;;;;5047762;28;20390;-45
2021/03/19 01:25:06;;;;;;;24.45;12.90;;;1.00;99.90;;;;;;5047604;28;20039;-48
2021/03/19 01:27:32;;;;;;;28.17;13.60;;;1.00;99.90;;;;;;5046655;28;20116;-44
2021/03/19 01:29:58;;;;;;;30.42;12.80;;;0.90;99.90;;;;;;5048215;28;20546;-44
2021/03/19 01:32:23;;;;;;;28.88;14.57;;;0.80;99.90;;;;;;5046073;28;20060;-44
2021/03/19 01:34:52;;;;;;;24.10;12.13;;;0.80;99.90;;;;;;5047774;28;20078;-46
2021/03/19 01:37:18;;;;;;;24.73;13.35;;;0.80;99.90;;;;;;5047865;28;20036;-45
2021/03/19 01:39:43;;;;;;;24.90;14.15;;;0.70;99.90;;;;;;5046842;28;20025;-44
2021/03/19 01:42:10;;;;;;;26.42;13.90;;;0.70;99.90;;;;;;5048296;28;20111;-45
2021/03/19 01:44:45;;;;;;;25.10;12.13;;;0.70;99.90;;;;;;5047556;28;20096;-44
2021/03/19 01:47:48;;;;;;;29.05;12.88;;;0.70;99.90;;;;;;5046917;28;20053;-47
2021/03/19 01:50:51;;;;;;;25.15;13.00;;;0.70;99.90;;;;;;5047519;28;20032;-47
2021/03/19 01:53:54;;;;;;;25.17;12.07;;;0.70;99.90;;;;;;5046291;28;20052;-44
2021/03/19 01:56:57;;;;;;;25.08;12.93;;;0.60;99.90;;;;;;5047386;28;20028;-45
2021/03/19 02:00:01;;;;;;;27.80;13.15;;;0.60;99.90;;;;;;5050364;28;20073;-45
2021/03/19 02:03:04;;;;;;;24.90;12.57;;;0.60;99.90;;;;;;5046464;28;20111;-46
2021/03/19 02:06:08;;;;;;;24.60;13.63;;;0.60;99.90;;;;;;5046417;28;20084;-47
2021/03/19 02:09:10;;;;;;;28.88;14.00;;;0.60;99.90;;;;;;5047331;28;20025;-45
2021/03/19 02:12:13;;;;;;;31.23;14.63;;;0.60;99.90;;;;;;5046626;28;20025;-47
2021/03/19 02:15:16;;;;;;;25.27;14.40;;;0.60;99.90;;;;;;5047109;28;20064;-46
2021/03/19 02:18:19;;;;;;;24.63;13.43;;;0.60;99.90;;;;;;5047097;28;20036;-45
2021/03/19 02:21:22;;;;;;;26.35;14.23;;;0.60;99.90;;;;;;5046861;28;20391;-45
2021/03/19 02:24:25;;;;;;;31.75;14.98;;;0.60;99.90;;;;;;5047006;28;20068;-45
2021/03/19 02:27:28;;;;;;;25.88;14.50;;;0.60;99.90;;;;;;5046486;28;20025;-44
2021/03/19 02:30:31;;;;;;;26.33;14.20;;;0.50;99.90;;;;;;5047415;28;20486;-44
2021/03/19 02:32:57;;;;;;;25.80;12.88;;;0.60;99.90;;;;;;5047092;28;20115;-47
2021/03/19 02:35:23;;;;;;;25.13;13.70;;;0.50;99.90;;;;;;5046206;28;20116;-47
2021/03/19 02:37:49;;;;;;;28.35;14.80;;;0.50;99.90;;;;;;5046829;28;20025;-45
2021/03/19 02:40:19;;;;;;;22.70;13.02;;;0.50;99.90;;;;;;5046887;28;20043;-44
2021/03/19 02:42:46;;;;;;;22.77;13.80;;;0.50;99.90;;;;;;5045380;28;20578;-45
2021/03/19 02:45:15;;;;;;;27.73;13.23;;;0.50;99.90;;;;;;5046009;28;20517;-44
2021/03/19 02:47:41;;;;;;;24.73;13.98;;;0.50;99.90;;;;;;5046302;28;20025;-46
2021/03/19 02:50:08;;;;;;;24.63;13.73;;;0.50;99.90;;;;;;5046440;28;20675;-47
2021/03/19 02:52:37;;;;;;;24.85;13.32;;;0.50;99.90;;;;;;5044884;28;20168;-47
2021/03/19 02:55:11;;;;;;;27.23;13.90;;;0.50;99.90;;;;;;5046094;28;20051;-44
2021/03/19 02:57:37;;;;;;;24.70;14.10;;;0.40;99.90;;;;;;5046317;28;20047;-44
2021/03/19 03:00:06;;;;;;;28.38;14.65;;;0.40;99.90;;;;;;5044630;28;20029;-45
2021/03/19 03:02:31;;;;;;;26.50;14.80;;;0.40;99.90;;;;;;5045106;28;20099;-44
2021/03/19 03:04:56;;;;;;;28.58;14.88;;;0.40;99.90;;;;;;5045883;28;20116;-45
2021/03/19 03:07:23;;;;;;;26.98;15.50;;;0.40;99.90;;;;;;5046705;28;20025;-44
2021/03/19 03:09:49;;;;;;;32.17;17.30;;;0.30;99.90;;;;;;5045079;28;20060;-46
2021/03/19 03:12:15;;;;;;;33.75;17.33;;;0.30;99.90;;;;;;5046167;28;20060;-44
2021/03/19 03:14:41;;;;;;;35.17;18.88;;;0.30;99.90;;;;;;5046245;28;20139;-45
2021/03/19 03:17:08;;;;;;;34.78;17.10;;;0.30;99.90;;;;;;5048647;28;20394;-45
2021/03/19 03:19:34;;;;;;;38.08;19.58;;;0.30;99.90;;;;;;5056197;28;20493;-45
2021/03/19 03:21:59;;;;;;;34.92;18.95;;;0.30;99.90;;;;;;5054683;28;20033;-44
2021/03/19 03:24:27;;;;;;;37.00;18.40;;;0.30;99.90;;;;;;5056699;28;20056;-46
2021/03/19 03:26:52;;;;;;;32.00;16.98;;;0.30;99.90;;;;;;5055347;28;20115;-45
2021/03/19 03:29:20;;;;;;;33.33;19.05;;;0.30;99.90;;;;;;5055262;28;20791;-46
2021/03/19 03:31:47;;;;;;;35.08;18.80;;;0.30;99.90;;;;;;5054712;28;20057;-46
2021/03/19 03:34:12;;;;;;;34.78;17.20;;;0.20;99.90;;;;;;5054120;28;20026;-45
2021/03/19 03:36:39;;;;;;;28.27;16.83;;;0.30;99.90;;;;;;5053775;28;20036;-44
2021/03/19 03:39:09;;;;;;;31.77;16.50;;;0.30;99.90;;;;;;5055024;28;20103;-45
2021/03/19 03:41:35;;;;;;;29.83;17.10;;;0.30;99.90;;;;;;5054652;28;20471;-45
2021/03/19 03:44:00;;;;;;;33.80;17.50;;;0.30;99.90;;;;;;5055436;28;20169;-45
2021/03/19 03:46:27;;;;;;;30.02;17.27;;;0.20;99.90;;;;;;5053307;28;20029;-44
2021/03/19 03:48:55;;;;;;;35.38;18.00;;;0.20;99.90;;;;;;5054344;28;20032;-44
2021/03/19 03:51:21;;;;;;;41.03;20.55;;;0.20;99.90;;;;;;5056773;28;20063;-44
2021/03/19 03:53:47;;;;;;;34.22;19.00;;;0.20;99.90;;;;;;5054456;28;20028;-47
2021/03/19 03:56:14;;;;;;;29.63;16.73;;;0.20;99.90;;;;;;5055274;28;20024;-43
2021/03/19 03:58:40;;;;;;;33.03;17.45;;;0.20;99.90;;;;;;5056523;28;20017;-44
2021/03/19 04:01:06;;;;;;;34.08;16.95;;;0.20;99.90;;;;;;5054082;28;20027;-45
2021/03/19 04:03:32;;;;;;;32.20;17.17;;;0.20;99.90;;;;;;5049914;28;20016;-45
2021/03/19 04:05:58;;;;;;;34.80;18.13;;;0.20;99.90;;;;;;5060074;28;20048;-46
2021/03/19 04:08:26;;;;;;;37.13;18.77;;;0.10;99.90;;;;;;5057618;28;20048;-45
2021/03/19 04:10:54;;;;;;;34.20;17.55;;;0.10;99.90;;;;;;5058689;28;20025;-44
2021/03/19 04:13:20;;;;;;;36.03;17.27;;;0.10;99.90;;;;;;5060224;28;20458;-44
2021/03/19 04:15:46;;;;;;;36.78;18.63;;;0.10;99.90;;;;;;5057326;28;20032;-44
2021/03/19 04:18:14;;;;;;;38.83;20.05;;;0.10;99.90;;;;;;5051270;28;20025;-45
2021/03/19 04:20:42;;;;;;;40.97;19.85;;;0.10;99.90;;;;;;5048406;28;20091;-45
2021/03/19 04:23:09;;;;;;;41.35;19.73;;;0.10;99.90;;;;;;5049582;28;20187;-44
2021/03/19 04:25:34;;;;;;;36.05;19.60;;;0.10;99.90;;;;;;5048069;28;20029;-44
2021/03/19 04:28:04;;;;;;;39.13;19.77;;;0.10;99.90;;;;;;5048428;28;20086;-45
2021/03/19 04:30:38;;;;;;;27.90;15.45;;;0.10;99.90;;;;;;5048686;28;20411;-45
2021/03/19 04:33:04;;;;;;;37.08;19.98;;;0.10;99.90;;;;;;5048921;28;20494;-46
2021/03/19 04:35:33;;;;;;;37.13;20.05;;;0.10;99.90;;;;;;5057995;28;20036;-43
2021/03/19 04:38:02;;;;;;;39.10;19.83;;;0.10;99.90;;;;;;5060560;28;20021;-46
2021/03/19 04:40:28;;;;;;;39.40;20.23;;;0.10;99.90;;;;;;5058830;28;20025;-44
2021/03/19 04:42:55;;;;;;;40.05;21.27;;;0.00;99.90;;;;;;5054551;28;20375;-44
2021/03/19 04:45:23;;;;;;;48.13;21.92;;;0.10;99.90;;;;;;5048515;28;20029;-44
2021/03/19 04:47:48;;;;;;;42.17;21.27;;;0.10;99.90;;;;;;5047579;28;20421;-44
2021/03/19 04:50:15;;;;;;;38.28;19.02;;;0.10;99.90;;;;;;5049009;28;20041;-44
2021/03/19 04:52:41;;;;;;;39.58;21.10;;;0.10;99.90;;;;;;5047568;28;20029;-46
2021/03/19 04:55:08;;;;;;;35.08;19.38;;;0.00;99.90;;;;;;5048158;28;20043;-48
2021/03/19 04:57:34;;;;;;;34.53;18.25;;;0.00;99.90;;;;;;5048534;28;20056;-44
2021/03/19 04:59:59;;;;;;;37.22;20.45;;;0.00;99.90;;;;;;5047786;28;20475;-48
2021/03/19 05:02:38;;;;;;;39.53;20.90;;;0.00;99.90;;;;;;5049245;28;20422;-44
2021/03/19 05:05:06;;;;;;;37.88;20.85;;;0.00;99.90;;;;;;5053276;28;20486;-44
2021/03/19 05:07:31;;;;;;;44.35;21.55;;;0.00;99.90;;;;;;5046426;28;20577;-46
2021/03/19 05:09:57;;;;;;;35.47;19.77;;;0.00;99.90;;;;;;5048372;28;20112;-45
2021/03/19 05:12:22;;;;;;;34.95;19.27;;;0.00;99.90;;;;;;5048459;28;20351;-47
2021/03/19 05:14:48;;;;;;;40.85;20.77;;;-0.10;99.90;;;;;;5047335;28;20414;-47
2021/03/19 05:17:15;;;;;;;40.90;20.52;;;-0.10;99.90;;;;;;5048018;28;20074;-46
2021/03/19 05:19:40;;;;;;;36.70;19.90;;;-0.10;99.90;;;;;;5047774;28;20176;-45
2021/03/19 05:22:06;;;;;;;36.90;19.23;;;-0.10;99.90;;;;;;5047904;28;20550;-45
2021/03/19 05:24:32;;;;;;;39.17;21.00;;;-0.10;99.90;;;;;;5047829;28;20120;-44
2021/03/19 05:26:57;;;;;;;40.10;21.55;;;-0.10;99.90;;;;;;5047509;28;20031;-46
2021/03/19 05:29:23;;;;;;;39.03;22.40;;;-0.10;99.90;;;;;;5046752;28;20159;-45
2021/03/19 05:31:48;;;;;;;44.75;24.50;;;-0.10;99.90;;;;;;5047672;28;20045;-44
2021/03/19 05:34:14;;;;;;;44.33;23.27;;;0.00;99.90;;;;;;5052585;28;20390;-45
2021/03/19 05:36:40;;;;;;;41.97;22.08;;;-0.10;99.90;;;;;;5054751;28;20474;-44
2021/03/19 05:39:07;;;;;;;44.58;22.73;;;0.00;99.90;;;;;;5058669;28;20025;-45
2021/03/19 05:41:35;;;;;;;48.25;25.23;;;0.00;99.90;;;;;;5056476;28;20406;-46
2021/03/19 05:44:15;;;;;;;40.88;21.92;;;0.00;99.90;;;;;;5056815;28;20432;-44
2021/03/19 05:46:48;;;;;;;42.55;22.50;;;0.00;99.90;;;;;;5056435;28;20029;-47
2021/03/19 05:49:26;;;;;;;43.13;23.83;;;0.00;99.90;;;;;;5056045;28;20029;-44
2021/03/19 05:52:07;;;;;;;45.17;23.75;;;0.10;99.90;;;;;;5056694;28;20030;-45
2021/03/19 05:54:39;;;;;;;41.63;23.77;;;0.10;99.90;;;;;;5058021;28;20060;-44
2021/03/19 05:57:07;;;;;;;47.60;24.42;;;0.20;99.90;;;;;;5055168;28;20021;-43
2021/03/19 05:59:43;;;;;;;45.05;24.27;;;0.20;99.90;;;;;;5055566;28;20025;-44
2021/03/19 06:02:17;;;;;;;44.85;23.52;;;0.30;99.90;;;;;;5055480;28;20490;-44
2021/03/19 06:04:43;;;;;;;39.90;22.52;;;0.40;99.90;;;;;;5054439;28;20278;-45
2021/03/19 06:07:08;;;;;;;34.85;20.05;;;0.40;99.90;;;;;;5056029;28;20048;-44
2021/03/19 06:09:41;;;;;;;47.03;23.73;;;0.40;99.90;;;;;;5055206;28;20508;-45
2021/03/19 06:12:18;;;;;;;46.70;24.48;;;0.50;99.90;;;;;;5058056;28;20049;-45
2021/03/19 06:14:56;;;;;;;45.55;22.30;;;0.60;99.90;;;;;;5065840;28;20028;-45
2021/03/19 06:17:41;;;;;;;40.75;22.17;;;0.70;99.90;;;;;;5068364;28;20020;-45
2021/03/19 06:20:14;;;;;;;46.13;23.95;;;0.70;99.90;;;;;;5061747;28;20024;-46
2021/03/19 06:22:46;;;;;;;39.58;21.42;;;0.80;99.90;;;;;;5069268;28;20037;-46
2021/03/19 06:25:23;;;;;;;43.63;21.40;;;0.90;99.90;;;;;;5076060;28;20606;-44
2021/03/19 06:28:04;;;;;;;42.03;21.52;;;0.90;99.90;;;;;;5064442;28;20424;-45
2021/03/19 06:30:37;;;;;;;40.92;22.63;;;1.00;99.90;;;;;;5079109;28;20032;-44
2021/03/19 06:33:05;;;;;;;40.42;22.08;;;1.00;99.90;;;;;;5066910;28;20155;-45
2021/03/19 06:35:34;;;;;;;43.25;22.52;;;1.10;99.90;;;;;;5078464;28;20106;-44
2021/03/19 06:38:24;;;;;;;45.03;22.48;;;1.10;99.90;;;;;;5072320;28;20508;-46
2021/03/19 06:40:49;;;;;;;42.00;23.08;;;1.20;99.90;;;;;;5075262;28;20167;-44
2021/03/19 06:43:17;;;;;;;43.47;23.27;;;1.30;99.90;;;;;;5082477;28;20123;-44
2021/03/19 06:45:45;;;;;;;41.00;23.63;;;1.30;99.90;;;;;;5069844;28;20032;-45
2021/03/19 06:48:33;;;;;;;45.55;24.10;;;1.30;99.90;;;;;;5081635;28;20185;-45
2021/03/19 06:50:59;;;;;;;42.88;23.90;;;1.30;99.90;;;;;;5063385;28;20021;-43
2021/03/19 06:53:29;;;;;;;44.92;23.38;;;1.30;99.90;;;;;;5055781;28;20202;-44
2021/03/19 06:56:15;;;;;;;42.88;21.80;;;1.40;99.90;;;;;;5055109;28;20497;-45
2021/03/19 06:58:46;;;;;;;44.15;22.00;;;1.50;99.90;;;;;;5056003;28;20020;-47
2021/03/19 07:01:24;;;;;;;37.88;20.60;;;1.60;99.90;;;;;;5058713;28;20071;-47
2021/03/19 07:04:23;;;;;;;43.65;23.42;;;1.70;99.90;;;;;;5058469;28;20067;-45
2021/03/19 07:07:04;;;;;;;43.30;23.55;;;1.90;99.90;;;;;;5056504;28;20111;-44
2021/03/19 07:10:07;;;;;;;42.28;23.70;;;2.00;99.90;;;;;;5057313;28;20040;-46
2021/03/19 07:13:03;;;;;;;39.92;22.73;;;2.00;99.90;;;;;;5059218;28;20048;-44
2021/03/19 07:15:42;;;;;;;42.92;23.88;;;2.10;99.90;;;;;;5034789;28;20091;-45
2021/03/19 07:18:30;;;;;;;42.60;23.33;;;2.20;99.90;;;;;;5058248;28;20504;-44
2021/03/19 07:21:09;;;;;;;46.53;24.35;;;2.20;99.90;;;;;;5054775;28;20017;-45
2021/03/19 07:24:18;;;;;;;44.40;23.85;;;2.30;99.90;;;;;;5052133;28;20025;-46
2021/03/19 07:26:51;;;;;;;41.47;23.35;;;2.50;99.90;;;;;;5033927;28;20037;-46
2021/03/19 07:29:35;;;;;;;44.20;22.30;;;2.60;99.90;;;;;;5054436;28;20021;-44
2021/03/19 07:32:28;;;;;;;42.45;23.42;;;2.80;99.90;;;;;;5053773;28;20033;-46
2021/03/19 07:35:12;;;;;;;42.08;22.08;;;2.80;99.90;;;;;;5055362;28;20025;-45
2021/03/19 07:37:48;;;;;;;43.85;22.48;;;3.00;99.90;;;;;;5047502;28;20044;-45
2021/03/19 07:40:23;;;;;;;41.83;23.67;;;3.30;99.90;;;;;;5053260;28;20433;-44
2021/03/19 07:43:30;;;;;;;46.55;22.55;;;3.40;99.90;;;;;;5060264;28;20060;-44
2021/03/19 07:46:06;;;;;;;40.92;23.10;;;3.60;99.90;;;;;;5046002;28;20445;-47
2021/03/19 07:48:40;;;;;;;37.03;22.02;;;3.70;99.90;;;;;;5050718;28;20479;-45
2021/03/19 07:51:12;;;;;;;42.22;23.90;;;3.90;99.90;;;;;;5050676;28;20043;-45
2021/03/19 07:54:14;;;;;;;44.45;26.00;;;3.80;99.90;;;;;;5050115;28;20033;-45
2021/03/19 07:56:51;;;;;;;36.45;23.08;;;4.10;99.90;;;;;;5049928;28;20025;-45
2021/03/19 07:59:33;;;;;;;38.15;22.58;;;4.20;99.90;;;;;;5050623;28;20067;-47
2021/03/19 08:02:17;;;;;;;40.08;23.88;;;4.40;99.90;;;;;;5051084;28;20415;-45
2021/03/19 08:05:07;;;;;;;36.65;23.95;;;4.50;99.90;;;;;;5050188;28;20272;-46
2021/03/19 08:07:32;;;;;;;37.55;22.77;;;4.50;99.90;;;;;;5059925;28;20214;-47
2021/03/19 08:10:03;;;;;;;37.60;22.27;;;4.50;99.90;;;;;;5070593;28;20047;-47
2021/03/19 08:12:50;;;;;;;35.83;21.77;;;4.60;99.90;;;;;;5070485;28;20024;-47
2021/03/19 08:15:24;;;;;;;37.28;21.50;;;4.40;99.90;;;;;;5069855;28;20086;-46
2021/03/19 08:18:01;;;;;;;35.53;21.17;;;4.40;99.90;;;;;;5070653;28;20033;-46
2021/03/19 08:20:39;;;;;;;32.33;20.20;;;4.40;99.90;;;;;;5069965;28;20023;-46
2021/03/19 08:23:31;;;;;;;30.30;17.77;;;4.30;99.90;;;;;;5070660;28;20024;-46
2021/03/19 08:25:57;;;;;;;25.75;15.88;;;4.30;99.90;;;;;;5069532;28;20028;-48
2021/03/19 08:28:50;;;;;;;27.67;17.90;;;4.30;99.90;;;;;;5070585;28;20115;-47
2021/03/19 08:31:41;;;;;;;26.33;16.40;;;4.20;99.90;;;;;;5070228;28;20130;-46
2021/03/19 08:34:27;;;;;;;24.40;15.23;;;4.30;99.90;;;;;;5054306;28;20107;-45
2021/03/19 08:36:54;;;;;;;22.95;14.73;;;4.40;99.90;;;;;;5049860;28;20021;-47
2021/03/19 08:39:42;;;;;;;19.73;13.48;;;4.40;99.90;;;;;;5050200;28;20494;-46
2021/03/19 08:42:16;;;;;;;21.50;13.35;;;4.60;99.90;;;;;;5050149;28;20041;-45
2021/03/19 08:44:43;;;;;;;18.67;11.95;;;4.80;99.90;;;;;;5049860;28;20123;-45
2021/03/19 08:47:26;;;;;;;18.10;12.23;;;4.90;99.90;;;;;;5049250;28;20029;-46
2021/03/19 08:49:55;;;;;;;15.07;9.73;;;5.30;99.90;;;;;;5048164;28;20059;-46
2021/03/19 08:52:33;;;;;;;19.23;9.20;;;5.40;99.90;;;;;;5048389;28;20120;-44
2021/03/19 08:55:14;;;;;;;13.77;8.30;;;5.80;99.90;;;;;;5048962;28;20112;-45
2021/03/19 08:57:48;;;;;;;13.02;8.55;;;6.20;99.90;;;;;;5048052;28;20025;-47
2021/03/19 09:00:39;;;;;;;10.32;7.45;;;6.80;99.90;;;;;;5049773;28;20048;-46
2021/03/19 09:03:11;;;;;;;9.13;6.20;;;7.70;99.90;;;;;;5049976;28;20048;-47
2021/03/19 09:06:04;;;;;;;13.20;6.30;;;9.30;99.90;;;;;;5050041;28;20087;-45
2021/03/19 09:09:09;;;;;;;7.28;5.60;;;10.70;88.90;;;;;;5054631;28;20430;-47
2021/03/19 09:11:38;;;;;;;10.82;5.93;;;11.40;87.50;;;;;;5051555;28;20264;-48
2021/03/19 09:14:04;;;;;;;6.97;6.10;;;13.00;75.90;;;;;;5049292;28;20082;-49
2021/03/19 09:16:40;;;;;;;7.03;4.95;;;14.60;63.30;;;;;;5048490;28;20075;-48
2021/03/19 09:19:35;;;;;;;8.55;4.78;;;15.10;62.00;;;;;;5049560;28;20029;-49
2021/03/19 09:22:31;;;;;;;7.80;5.00;;;16.00;60.50;;;;;;5049149;28;20544;-47
2021/03/19 09:25:12;;;;;;;5.68;3.72;;;16.90;54.80;;;;;;5048527;28;20112;-47
2021/03/19 09:27:40;;;;;;;6.05;4.00;;;18.10;52.70;;;;;;5047175;28;20060;-49
2021/03/19 09:30:23;;;;;;;6.65;4.50;;;18.90;50.70;;;;;;5047763;28;20025;-49
2021/03/19 09:32:53;;;;;;;7.70;5.22;;;19.80;48.80;;;;;;5047483;28;20360;-47
2021/03/19 09:35:41;;;;;;;6.13;4.60;;;19.70;45.60;;;;;;5046492;28;20487;-47
2021/03/19 09:38:32;;;;;;;5.93;5.13;;;18.40;47.90;;;;;;5048387;28;20032;-47
2021/03/19 09:41:00;;;;;;;6.53;5.50;;;18.50;45.90;;;;;;5048337;28;20374;-47
2021/03/19 09:43:39;;;;;;;7.95;5.93;;;17.50;47.10;;;;;;5047770;28;20132;-47
2021/03/19 09:46:27;;;;;;;8.10;5.03;;;16.20;50.40;;;;;;5048291;28;20017;-47
2021/03/19 09:48:58;;;;;;;9.23;5.72;;;15.00;53.50;;;;;;5047149;28;20025;-48
2021/03/19 09:51:42;;;;;;;9.52;5.72;;;14.00;55.60;;;;;;5048082;28;20029;-46
2021/03/19 09:54:27;;;;;;;12.18;6.10;;;13.00;56.30;;;;;;5048621;28;20040;-46
2021/03/19 09:56:55;;;;;;;7.82;6.03;;;11.50;61.20;;;;;;5047994;28;20021;-45
2021/03/19 09:59:28;;;;;;;7.80;5.78;;;10.40;64.40;;;;;;5048493;28;20043;-46
2021/03/19 10:01:53;;;;;;;8.85;5.95;;;9.10;68.40;;;;;;5048178;28;20021;-46
2021/03/19 10:04:33;;;;;;;9.65;6.07;;;8.30;71.20;;;;;;5046905;28;20029;-47
2021/03/19 10:07:00;;;;;;;13.60;6.78;;;7.90;80.50;;;;;;5048201;28;20099;-47
2021/03/19 10:09:37;;;;;;;9.45;5.90;;;7.40;90.80;;;;;;5052525;28;20051;-48
2021/03/19 10:12:12;;;;;;;10.68;6.30;;;7.30;93.70;;;;;;5065003;28;20036;-49
2021/03/19 10:14:40;;;;;;;8.57;5.60;;;7.90;94.70;;;;;;5066475;28;20826;-46
2021/03/19 10:17:16;;;;;;;11.13;4.95;;;8.70;91.60;;;;;;5067734;28;20040;-45
2021/03/19 10:19:45;;;;;;;10.15;5.80;;;8.80;88.20;;;;;;5067482;28;20079;-46
2021/03/19 10:22:27;;;;;;;9.63;6.45;;;8.60;86.50;;;;;;5068243;28;20044;-45
2021/03/19 10:24:52;;;;;;;9.57;6.15;;;8.30;90.70;;;;;;5067595;28;20115;-45
2021/03/19 10:27:19;;;;;;;9.85;6.80;;;8.00;92.80;;;;;;5068228;28;20119;-47
2021/03/19 10:29:47;;;;;;;9.57;6.97;;;7.50;94.60;;;;;;5067126;28;20060;-47
2021/03/19 10:32:22;;;;;;;13.13;6.78;;;7.00;98.10;;;;;;5066723;28;20551;-45
2021/03/19 10:34:57;;;;;;;9.82;5.25;;;7.00;99.50;;;;;;5066871;28;20037;-46
2021/03/19 10:37:42;;;;;;;10.27;6.13;;;6.80;99.90;;;;;;5066692;28;20283;-47
2021/03/19 10:40:24;;;;;;;9.77;6.75;;;6.60;99.90;;;;;;5067941;28;20048;-45
2021/03/19 10:43:09;;;;;;;11.90;7.47;;;6.50;99.90;;;;;;5067894;28;20505;-46
2021/03/19 10:45:50;;;;;;;13.90;7.28;;;6.20;99.90;;;;;;5066385;28;20038;-45
2021/03/19 10:48:34;;;;;;;12.95;7.45;;;6.20;99.90;;;;;;5067726;28;20029;-46
2021/03/19 10:51:02;;;;;;;12.25;8.02;;;6.30;99.90;;;;;;5067453;28;20145;-47
2021/03/19 10:53:47;;;;;;;12.95;8.07;;;6.30;99.90;;;;;;5067338;28;20024;-45
2021/03/19 10:56:14;;;;;;;10.98;7.10;;;7.00;99.90;;;;;;5068031;28;20039;-49
2021/03/19 10:58:49;;;;;;;10.65;7.15;;;7.40;99.90;;;;;;5067366;28;20776;-48
2021/03/19 11:01:35;;;;;;;12.82;6.93;;;7.70;99.90;;;;;;5067627;28;20021;-46
2021/03/19 11:04:03;;;;;;;14.23;8.00;;;7.80;99.70;;;;;;5067371;28;20098;-46
2021/03/19 11:06:41;;;;;;;11.15;7.00;;;7.60;99.90;;;;;;5066360;28;20021;-45
2021/03/19 11:09:14;;;;;;;12.38;6.55;;;7.60;99.30;;;;;;5067550;28;20024;-45
2021/03/19 11:11:41;;;;;;;10.20;7.13;;;7.30;99.50;;;;;;5061226;28;20397;-45
2021/03/19 11:14:09;;;;;;;13.75;7.78;;;6.70;99.90;;;;;;5067009;28;20394;-47
2021/03/19 11:16:39;;;;;;;13.20;7.22;;;6.60;99.90;;;;;;5066483;28;20016;-46
2021/03/19 11:19:28;;;;;;;14.70;6.20;;;6.30;99.90;;;;;;5067547;28;20021;-45
2021/03/19 11:22:05;;;;;;;8.85;6.28;;;6.10;99.90;;;;;;5066479;28;20036;-45
2021/03/19 11:24:34;;;;;;;8.40;5.47;;;6.10;99.90;;;;;;5066782;28;20029;-45
2021/03/19 11:27:21;;;;;;;11.88;5.88;;;5.90;99.90;;;;;;5066762;28;20494;-45
2021/03/19 11:29:47;;;;;;;11.50;6.15;;;5.70;99.90;;;;;;5066935;28;20032;-45
2021/03/19 11:32:13;;;;;;;9.15;5.88;;;5.70;99.90;;;;;;5067551;28;20032;-47
2021/03/19 11:34:45;;;;;;;10.23;5.88;;;5.60;99.90;;;;;;5065237;28;20029;-46
2021/03/19 11:37:27;;;;;;;11.63;6.40;;;5.40;99.90;;;;;;5066709;28;20112;-48
2021/03/19 11:39:57;;;;;;;10.32;6.25;;;5.20;99.90;;;;;;5067260;28;20096;-45
2021/03/19 11:42:33;;;;;;;9.18;6.47;;;5.20;99.90;;;;;;5067469;28;20030;-45
2021/03/19 11:45:09;;;;;;;11.45;6.90;;;5.10;99.90;;;;;;5054698;28;20025;-45
2021/03/19 11:47:51;;;;;;;13.13;8.02;;;5.00;99.90;;;;;;5042570;28;20379;-45
2021/03/19 11:50:23;;;;;;;11.50;6.60;;;5.00;99.90;;;;;;5067549;28;20024;-46
2021/03/19 11:52:51;;;;;;;13.05;6.90;;;4.90;99.90;;;;;;5066450;28;20043;-44
2021/03/19 11:55:24;;;;;;;12.43;8.07;;;4.90;99.90;;;;;;5066293;28;20502;-46
2021/03/19 11:57:50;;;;;;;12.30;6.90;;;4.80;99.90;;;;;;5066664;28;20025;-49
2021/03/19 12:00:18;;;;;;;10.77;7.20;;;4.90;99.90;;;;;;5065688;28;20025;-45
2021/03/19 12:02:44;;;;;;;10.52;6.68;;;4.90;99.90;;;;;;5060924;28;20018;-45
2021/03/19 12:05:12;;;;;;;12.88;7.85;;;4.90;99.90;;;;;;5045776;28;20096;-46
2021/03/19 12:07:38;;;;;;;12.52;7.80;;;5.10;99.90;;;;;;5046377;28;20017;-46
2021/03/19 12:10:06;;;;;;;14.80;8.07;;;5.00;99.90;;;;;;5046952;28;20648;-45
2021/03/19 12:12:31;;;;;;;15.02;8.18;;;5.00;99.90;;;;;;5052896;28;20422;-45
2021/03/19 12:14:58;;;;;;;15.07;7.82;;;5.00;99.90;;;;;;5066296;28;20098;-46
2021/03/19 12:17:24;;;;;;;12.50;8.48;;;5.00;99.90;;;;;;5067047;28;20397;-45
2021/03/19 12:19:51;;;;;;;17.42;9.57;;;4.90;99.90;;;;;;5066438;28;20389;-45
2021/03/19 12:22:17;;;;;;;13.60;8.73;;;4.90;99.90;;;;;;5066491;28;20032;-45
2021/03/19 12:24:43;;;;;;;16.70;9.98;;;4.80;99.90;;;;;;5064964;28;20016;-46
2021/03/19 12:27:08;;;;;;;14.27;8.70;;;4.90;99.90;;;;;;5069799;28;20024;-47
2021/03/19 12:29:34;;;;;;;16.88;9.07;;;5.00;99.90;;;;;;5069720;28;20518;-45
2021/03/19 12:32:00;;;;;;;11.10;8.25;;;5.00;99.90;;;;;;5070256;28;20036;-46
2021/03/19 12:34:25;;;;;;;16.77;9.98;;;5.00;99.90;;;;;;5051338;28;20040;-46
2021/03/19 12:36:52;;;;;;;15.68;9.23;;;5.10;99.90;;;;;;5049132;28;20046;-45
2021/03/19 12:39:19;;;;;;;23.10;10.85;;;5.10;99.90;;;;;;5050062;28;20055;-45
2021/03/19 12:41:45;;;;;;;19.10;11.15;;;5.20;99.90;;;;;;5049652;28;20052;-46
2021/03/19 12:44:11;;;;;;;16.90;11.00;;;5.30;99.90;;;;;;5049632;28;20031;-48
2021/03/19 12:46:36;;;;;;;25.27;11.18;;;6.10;99.90;;;;;;5047569;28;20025;-48
2021/03/19 12:49:03;;;;;;;17.23;10.45;;;7.10;99.90;;;;;;5049843;28;20087;-45
2021/03/19 12:51:28;;;;;;;14.00;9.85;;;8.10;99.90;;;;;;5048706;28;20112;-46
2021/03/19 12:53:54;;;;;;;14.25;10.38;;;8.60;98.10;;;;;;5048010;28;20111;-46
2021/03/19 12:56:20;;;;;;;15.18;8.93;;;9.20;96.70;;;;;;5047649;28;20021;-45
2021/03/19 12:58:45;;;;;;;15.80;9.60;;;9.80;93.30;;;;;;5046979;28;20061;-45
2021/03/19 13:01:11;;;;;;;15.50;8.57;;;9.90;89.70;;;;;;5047849;28;20447;-46
2021/03/19 13:03:36;;;;;;;13.85;8.90;;;10.00;88.00;;;;;;5048051;28;20268;-49
2021/03/19 13:06:03;;;;;;;15.85;8.20;;;9.90;83.80;;;;;;5048312;28;20063;-46
2021/03/19 13:08:29;;;;;;;13.70;7.75;;;10.30;85.00;;;;;;5063890;28;20016;-46
2021/03/19 13:10:54;;;;;;;10.43;7.43;;;10.30;81.90;;;;;;5060800;28;20513;-46
2021/03/19 13:13:20;;;;;;;15.68;8.93;;;10.20;80.90;;;;;;5056428;28;20157;-45